Time;durP1;ratioP1;P1;durP2;ratioP2;P2;SDS_P1;SDS_P2;PMS_P1;PMS_P2;Temp;Humidity;BMP_temperature;BMP_pressure;BME280_temperature;BME280_humidity;BME280_pressure;Samples;Min_cycle;Max_cycle;Signal;HPM_P1;HPM_P2
2021/01/13 00:00:48;;;;;;;6.20;1.97;;;;;;;0.42;84.76;99181.69;120070;1150;25793;-61
2021/01/13 00:03:18;;;;;;;13.73;2.57;;;;;;;0.40;84.89;99180.58;120219;1148;22957;-60
2021/01/13 00:05:48;;;;;;;7.93;1.40;;;;;;;0.35;85.14;99187.38;120352;1148;27831;-61
2021/01/13 00:08:19;;;;;;;8.78;1.90;;;;;;;0.32;84.93;99177.28;120124;1148;22945;-61
2021/01/13 00:10:49;;;;;;;12.00;2.20;;;;;;;0.28;85.50;99178.58;120168;1148;22936;-61
2021/01/13 00:13:19;;;;;;;10.03;2.40;;;;;;;0.26;85.66;99175.50;120059;1148;23029;-60
2021/01/13 00:15:48;;;;;;;;;;;;;;;0.24;85.62;99180.66;120178;1148;27374;-61
2021/01/13 00:18:18;;;;;;;8.80;2.07;;;;;;;0.23;85.90;99184.62;120059;1148;21562;-61
2021/01/13 00:20:49;;;;;;;9.93;2.00;;;;;;;0.22;86.04;99181.09;120043;1148;24599;-61
2021/01/13 00:23:19;;;;;;;8.40;1.80;;;;;;;0.21;86.05;99179.55;120064;1148;22950;-60
2021/01/13 00:25:49;;;;;;;8.83;1.40;;;;;;;0.22;85.77;99172.09;120408;1148;25984;-61
2021/01/13 00:28:19;;;;;;;12.67;2.00;;;;;;;0.21;85.29;99173.30;120209;1148;23007;-66
2021/01/13 00:30:49;;;;;;;6.50;1.62;;;;;;;0.22;86.03;99169.34;120204;1148;23030;-62
2021/01/13 00:33:20;;;;;;;14.57;1.83;;;;;;;0.23;85.44;99168.90;120036;1148;27183;-62
2021/01/13 00:35:51;;;;;;;10.33;1.40;;;;;;;0.24;85.58;99170.45;120223;1150;22935;-61
2021/01/13 00:38:21;;;;;;;12.10;1.83;;;;;;;0.25;86.11;99173.98;120085;1148;23102;-61
2021/01/13 00:40:51;;;;;;;6.92;1.90;;;;;;;0.26;85.48;99165.30;120007;1148;22968;-62
2021/01/13 00:43:22;;;;;;;9.50;2.17;;;;;;;0.27;85.57;99169.56;120134;1149;26015;-60
2021/01/13 00:45:52;;;;;;;10.17;1.50;;;;;;;0.30;85.72;99176.94;120149;1148;26471;-61
2021/01/13 00:48:22;;;;;;;12.35;2.15;;;;;;;0.29;85.96;99167.16;120047;1148;22923;-61
2021/01/13 00:50:52;;;;;;;12.88;2.08;;;;;;;0.29;85.73;99171.89;120188;1148;22944;-60
2021/01/13 00:53:23;;;;;;;8.87;2.03;;;;;;;0.29;85.77;99169.90;120070;1149;23080;-60
2021/01/13 00:55:53;;;;;;;12.13;1.93;;;;;;;0.29;85.95;99178.13;120300;1148;23035;-61
2021/01/13 00:58:24;;;;;;;9.70;1.87;;;;;;;0.29;86.76;99183.63;120195;1148;23399;-61
2021/01/13 01:00:54;;;;;;;6.20;1.37;;;;;;;0.31;85.96;99188.70;120131;1148;22945;-61
2021/01/13 01:03:24;;;;;;;8.67;2.00;;;;;;;0.31;86.60;99192.20;120121;1148;27056;-61
2021/01/13 01:05:55;;;;;;;6.90;1.60;;;;;;;0.32;86.46;99199.23;120069;1148;23164;-60
2021/01/13 01:08:25;;;;;;;7.37;1.40;;;;;;;0.32;86.41;99198.46;120199;1148;22951;-62
2021/01/13 01:10:58;;;;;;;8.25;1.65;;;;;;;0.34;86.35;99210.55;120114;1148;22919;-59
2021/01/13 01:13:29;;;;;;;8.50;1.40;;;;;;;0.32;86.27;99212.97;120132;1148;22914;-61
2021/01/13 01:15:58;;;;;;;;;;;;;;;0.29;86.44;99208.33;120302;1148;22934;-60
2021/01/13 01:18:28;;;;;;;7.30;1.50;;;;;;;0.27;86.30;99218.23;120131;1148;21566;-61
2021/01/13 01:20:58;;;;;;;8.53;1.50;;;;;;;0.25;86.80;99217.89;120039;1148;24733;-61
2021/01/13 01:23:28;;;;;;;7.12;1.37;;;;;;;0.25;86.84;99235.11;120400;1148;23427;-61
2021/01/13 01:25:58;;;;;;;9.23;1.47;;;;;;;0.26;86.77;99228.43;120051;1148;26407;-61
2021/01/13 01:28:28;;;;;;;6.53;1.37;;;;;;;0.27;86.26;99240.94;120044;1148;22910;-63
2021/01/13 01:30:59;;;;;;;5.50;1.35;;;;;;;0.28;86.81;99233.48;120035;1148;23087;-62
2021/01/13 01:33:27;;;;;;;;;;;;;;;0.30;86.95;99237.34;120057;1149;23051;-61
2021/01/13 01:35:58;;;;;;;7.10;1.13;;;;;;;0.31;86.66;99246.34;120011;1148;21630;-60
2021/01/13 01:38:28;;;;;;;6.63;1.30;;;;;;;0.32;86.05;99248.66;120120;1148;22945;-61
2021/01/13 01:41:04;;;;;;;5.00;0.80;;;;;;;0.34;86.14;99264.69;120058;1148;24587;-62
2021/01/13 01:43:35;;;;;;;3.30;1.00;;;;;;;0.36;86.15;99256.78;122883;1149;22934;-62
2021/01/13 01:46:08;;;;;;;4.33;1.00;;;;;;;0.34;85.69;99268.20;120134;1148;23061;-61
2021/01/13 01:48:50;;;;;;;2.70;0.70;;;;;;;0.34;85.65;99264.69;120207;1148;22861;-63
2021/01/13 01:51:23;;;;;;;6.30;0.80;;;;;;;0.34;85.19;99275.66;120056;1148;23038;-62
2021/01/13 01:54:14;;;;;;;2.43;0.60;;;;;;;0.33;84.88;99282.38;120154;1148;22923;-62
2021/01/13 01:56:45;;;;;;;1.67;0.50;;;;;;;0.30;85.51;99283.22;120124;1150;22948;-62
2021/01/13 01:59:16;;;;;;;3.70;0.83;;;;;;;0.27;85.71;99284.85;120068;1148;23087;-63
2021/01/13 02:01:52;;;;;;;4.93;0.57;;;;;;;0.26;85.38;99288.03;120144;1148;26661;-62
2021/01/13 02:04:29;;;;;;;4.17;0.47;;;;;;;0.26;85.23;99294.30;120095;1148;22928;-61
2021/01/13 02:07:30;;;;;;;2.97;0.40;;;;;;;0.26;85.08;99299.80;121422;1148;22951;-61
2021/01/13 02:10:03;;;;;;;4.03;0.50;;;;;;;0.28;84.98;99302.10;120113;1148;23786;-62
2021/01/13 02:12:35;;;;;;;2.50;0.50;;;;;;;0.26;83.46;99302.55;120087;1148;23517;-60
2021/01/13 02:15:08;;;;;;;1.30;0.33;;;;;;;0.27;83.38;99295.83;120205;1148;22948;-62
2021/01/13 02:17:40;;;;;;;6.57;0.63;;;;;;;0.26;84.20;99302.55;120102;1148;26072;-62
2021/01/13 02:20:21;;;;;;;3.10;0.33;;;;;;;0.25;83.90;99311.97;120138;1148;23511;-62
2021/01/13 02:23:09;;;;;;;1.90;0.40;;;;;;;0.24;83.81;99302.20;120159;1149;22995;-60
2021/01/13 02:26:27;;;;;;;2.70;0.40;;;;;;;0.22;83.23;99314.81;120185;1148;22948;-61
2021/01/13 02:29:10;;;;;;;1.13;0.33;;;;;;;0.20;82.47;99306.23;119727;1151;23023;-61
2021/01/13 02:31:50;;;;;;;3.57;0.60;;;;;;;0.16;82.68;99309.08;119735;1151;22974;-60
2021/01/13 02:34:31;;;;;;;3.67;0.30;;;;;;;0.15;81.98;99314.98;119908;1151;22947;-60
2021/01/13 02:37:34;;;;;;;6.67;0.30;;;;;;;0.12;82.17;99310.38;120020;1151;22928;-62
2021/01/13 02:40:12;;;;;;;4.77;0.47;;;;;;;0.08;81.86;99298.72;119735;1151;22945;-61
2021/01/13 02:42:56;;;;;;;1.40;0.30;;;;;;;0.06;81.98;99314.84;119994;1151;22933;-60
2021/01/13 02:45:27;;;;;;;2.10;0.40;;;;;;;0.03;81.13;99316.47;119894;1151;22943;-61
2021/01/13 02:48:13;;;;;;;7.83;0.50;;;;;;;0.01;81.99;99318.87;119799;1151;24624;-61
2021/01/13 02:50:50;;;;;;;2.93;0.20;;;;;;;-0.03;81.65;99321.70;119900;1151;24582;-59
2021/01/13 02:53:48;;;;;;;2.40;0.30;;;;;;;-0.05;81.79;99326.86;119923;1151;22974;-60
2021/01/13 02:56:32;;;;;;;6.27;0.30;;;;;;;-0.09;82.60;99330.87;119848;1151;23017;-61
2021/01/13 02:59:11;;;;;;;2.30;0.40;;;;;;;-0.11;82.80;99344.26;119953;1151;27673;-61
2021/01/13 03:01:45;;;;;;;1.30;0.33;;;;;;;-0.15;82.20;99344.35;119964;1150;23034;-60
2021/01/13 03:04:16;;;;;;;3.10;0.70;;;;;;;-0.17;82.71;99354.98;120114;1148;23036;-59
2021/01/13 03:06:48;;;;;;;9.23;0.63;;;;;;;-0.19;82.99;99349.12;120317;1148;24614;-61
2021/01/13 03:09:21;;;;;;;4.23;0.50;;;;;;;-0.21;83.35;99343.30;120274;1148;22874;-60
2021/01/13 03:11:52;;;;;;;3.05;0.40;;;;;;;-0.24;83.00;99340.64;120216;1150;27629;-59
2021/01/13 03:14:26;;;;;;;;;;;;;;;-0.25;83.34;99347.34;120408;1148;22947;-59
2021/01/13 03:17:12;;;;;;;4.63;0.73;;;;;;;-0.27;83.82;99353.23;120286;1148;23207;-61
2021/01/13 03:20:07;;;;;;;6.93;0.70;;;;;;;-0.28;83.86;99357.19;120319;1148;26105;-60
2021/01/13 03:22:45;;;;;;;7.30;0.60;;;;;;;-0.26;83.70;99359.50;120231;1148;23033;-60
2021/01/13 03:25:18;;;;;;;6.40;0.70;;;;;;;-0.24;83.73;99354.36;120398;1148;24578;-59
2021/01/13 03:27:48;;;;;;;5.90;0.70;;;;;;;-0.20;83.70;99366.02;120205;1148;23065;-61
2021/01/13 03:30:20;;;;;;;;;;;;;;;-0.19;84.31;99370.31;120390;1148;26388;-59
2021/01/13 03:33:18;;;;;;;3.60;0.57;;;;;;;-0.18;83.89;99369.88;120356;1148;21663;-60
2021/01/13 03:35:57;;;;;;;6.17;0.80;;;;;;;-0.16;84.61;99375.71;120412;1148;24747;-60
2021/01/13 03:38:30;;;;;;;5.60;0.70;;;;;;;-0.14;84.30;99375.27;120283;1148;22945;-61
2021/01/13 03:41:07;;;;;;;5.67;0.87;;;;;;;-0.14;84.22;99369.79;120157;1148;22943;-61
2021/01/13 03:43:40;;;;;;;5.97;0.77;;;;;;;-0.14;84.48;99372.53;120783;1148;26813;-62
2021/01/13 03:46:11;;;;;;;6.87;0.80;;;;;;;-0.14;84.12;99369.79;120265;1148;22916;-62
2021/01/13 03:48:49;;;;;;;7.77;0.93;;;;;;;-0.15;84.24;99363.55;120152;1148;23028;-60
2021/01/13 03:51:55;;;;;;;5.40;0.70;;;;;;;-0.17;83.99;99376.15;120288;1148;22924;-60
2021/01/13 03:54:27;;;;;;;4.30;0.90;;;;;;;-0.18;84.69;99377.33;120484;1148;22937;-61
2021/01/13 03:57:05;;;;;;;5.87;0.80;;;;;;;-0.19;84.07;99373.06;120468;1148;22927;-61
2021/01/13 04:00:05;;;;;;;4.15;0.60;;;;;;;-0.20;84.81;99377.77;120154;1148;23007;-60
2021/01/13 04:02:43;;;;;;;3.87;0.70;;;;;;;-0.22;84.32;99377.42;120260;1148;22945;-60
2021/01/13 04:05:22;;;;;;;6.73;0.87;;;;;;;-0.22;84.07;99380.16;120215;1148;22951;-60
2021/01/13 04:07:55;;;;;;;7.50;1.30;;;;;;;-0.23;84.77;99383.34;120268;1148;22873;-59
2021/01/13 04:10:26;;;;;;;9.47;0.90;;;;;;;-0.24;83.94;99392.75;120329;1148;22958;-60
2021/01/13 04:13:08;;;;;;;5.60;0.90;;;;;;;-0.24;83.90;99392.75;120347;1147;23360;-61
2021/01/13 04:15:40;;;;;;;7.33;0.90;;;;;;;-0.25;83.97;99397.46;120318;1148;22998;-59
2021/01/13 04:18:13;;;;;;;9.30;1.07;;;;;;;-0.26;83.88;99409.64;120204;1148;23027;-59
2021/01/13 04:20:44;;;;;;;8.03;1.17;;;;;;;-0.25;84.79;99413.17;120262;1148;22951;-61
2021/01/13 04:23:16;;;;;;;9.23;1.10;;;;;;;-0.23;84.42;99402.55;120146;1148;27084;-62
2021/01/13 04:25:47;;;;;;;9.10;1.00;;;;;;;-0.22;84.82;99409.55;120194;1148;22912;-61
2021/01/13 04:28:18;;;;;;;8.07;1.10;;;;;;;-0.22;84.52;99413.08;120218;1148;23078;-61
2021/01/13 04:30:50;;;;;;;10.47;0.70;;;;;;;-0.20;84.47;99410.68;120193;1148;22922;-62
2021/01/13 04:33:21;;;;;;;7.45;0.80;;;;;;;-0.17;83.69;99414.55;120173;1148;23445;-61
2021/01/13 04:35:52;;;;;;;7.17;0.60;;;;;;;-0.17;83.77;99406.32;120289;1148;22934;-61
2021/01/13 04:38:26;;;;;;;9.30;0.67;;;;;;;-0.17;84.16;99406.32;120221;1148;22913;-60
2021/01/13 04:41:08;;;;;;;5.13;0.67;;;;;;;-0.19;84.18;99403.98;120039;1148;24917;-61
2021/01/13 04:44:00;;;;;;;2.87;0.50;;;;;;;-0.21;83.49;99417.35;121239;1148;25506;-60
2021/01/13 04:46:33;;;;;;;11.03;0.93;;;;;;;-0.23;83.60;99408.78;121407;1148;22915;-61
2021/01/13 04:49:10;;;;;;;5.17;0.70;;;;;;;-0.25;83.68;99419.41;120470;1148;22919;-60
2021/01/13 04:51:42;;;;;;;8.17;1.07;;;;;;;-0.26;84.12;99411.61;120332;1148;23032;-61
2021/01/13 04:54:16;;;;;;;9.10;0.80;;;;;;;-0.25;84.41;99410.42;120247;1148;22951;-61
2021/01/13 04:57:17;;;;;;;8.17;0.97;;;;;;;-0.24;84.81;99409.21;120264;1148;22964;-61
2021/01/13 05:00:11;;;;;;;7.30;0.70;;;;;;;-0.23;84.91;99419.00;120170;1148;22941;-60
2021/01/13 05:03:22;;;;;;;13.97;2.03;;;;;;;-0.21;84.21;99428.33;120239;1148;25951;-62
2021/01/13 05:06:07;;;;;;;11.20;0.90;;;;;;;-0.17;84.28;99428.27;119703;1154;23413;-61
2021/01/13 05:08:47;;;;;;;7.65;0.70;;;;;;;-0.14;85.01;99428.17;119936;1153;22960;-61
2021/01/13 05:11:20;;;;;;;8.50;1.00;;;;;;;-0.09;84.87;99426.91;119866;1154;23293;-60
2021/01/13 05:13:53;;;;;;;6.90;1.00;;;;;;;-0.07;84.34;99427.25;119723;1153;24791;-61
2021/01/13 05:16:27;;;;;;;3.63;0.90;;;;;;;-0.03;85.03;99430.68;119861;1153;22976;-61
2021/01/13 05:19:03;;;;;;;10.53;1.10;;;;;;;-0.02;84.56;99427.50;119855;1153;23269;-61
2021/01/13 05:21:40;;;;;;;8.17;1.67;;;;;;;-0.01;84.13;99422.80;119742;1153;23387;-61
2021/01/13 05:24:15;;;;;;;14.55;2.35;;;;;;;-0.01;84.88;99415.34;119849;1154;22989;-60
2021/01/13 05:26:58;;;;;;;13.67;1.30;;;;;;;0.01;84.51;99425.88;119841;1154;22928;-60
2021/01/13 05:29:37;;;;;;;9.90;1.17;;;;;;;0.04;84.01;99437.98;120105;1153;26015;-59
2021/01/13 05:32:09;;;;;;;12.35;1.45;;;;;;;0.08;83.98;99424.95;119867;1153;23060;-59
2021/01/13 05:34:39;;;;;;;17.90;1.77;;;;;;;0.10;84.01;99430.78;119766;1153;23000;-60
2021/01/13 05:37:42;;;;;;;15.73;1.40;;;;;;;0.14;84.23;99429.50;119963;1154;27454;-61
2021/01/13 05:40:15;;;;;;;16.80;1.93;;;;;;;0.15;84.17;99427.50;119726;1154;22962;-61
2021/01/13 05:42:49;;;;;;;12.50;1.50;;;;;;;0.15;84.21;99435.73;119834;1154;22948;-59
2021/01/13 05:45:21;;;;;;;9.65;1.50;;;;;;;0.16;84.62;99432.59;120260;1148;23144;-61
2021/01/13 05:47:55;;;;;;;10.77;1.30;;;;;;;0.18;84.08;99443.13;120191;1148;22934;-62
2021/01/13 05:50:26;;;;;;;13.33;3.23;;;;;;;0.19;84.25;99437.20;120337;1148;22936;-60
2021/01/13 05:52:57;;;;;;;8.37;1.23;;;;;;;0.19;84.76;99436.45;120218;1148;23008;-60
2021/01/13 05:55:29;;;;;;;12.17;1.93;;;;;;;0.20;84.58;99433.27;120238;1148;22954;-61
2021/01/13 05:58:01;;;;;;;9.93;1.53;;;;;;;0.20;84.34;99433.27;120178;1150;23005;-62
2021/01/13 06:00:33;;;;;;;7.63;1.50;;;;;;;0.18;84.67;99446.66;120093;1148;25992;-61
2021/01/13 06:03:07;;;;;;;9.43;1.40;;;;;;;0.17;85.32;99433.34;120064;1148;26350;-62
2021/01/13 06:05:50;;;;;;;12.65;1.25;;;;;;;0.14;85.69;99434.21;120097;1148;22956;-63
2021/01/13 06:08:25;;;;;;;20.37;1.73;;;;;;;0.13;85.01;99441.66;120272;1148;22933;-63
2021/01/13 06:11:04;;;;;;;13.20;1.43;;;;;;;0.12;84.90;99442.09;120155;1148;22930;-61
2021/01/13 06:13:36;;;;;;;13.45;1.70;;;;;;;0.11;85.59;99435.83;120052;1148;22995;-61
2021/01/13 06:16:11;;;;;;;7.87;1.30;;;;;;;0.10;85.20;99439.79;120203;1148;23064;-62
2021/01/13 06:18:44;;;;;;;10.27;1.47;;;;;;;0.09;86.10;99449.20;120198;1148;23031;-62
2021/01/13 06:21:16;;;;;;;12.23;2.00;;;;;;;0.08;85.59;99441.41;120099;1148;23370;-61
2021/01/13 06:23:50;;;;;;;16.05;2.20;;;;;;;0.06;85.29;99441.84;119920;1148;26446;-62
2021/01/13 06:26:21;;;;;;;15.83;2.40;;;;;;;0.05;85.39;99436.77;120379;1148;22915;-61
2021/01/13 06:29:30;;;;;;;15.47;1.80;;;;;;;0.05;85.42;99440.29;120868;1148;22976;-62
2021/01/13 06:32:12;;;;;;;10.57;2.30;;;;;;;0.04;86.16;99444.25;120130;1148;22934;-62
2021/01/13 06:34:57;;;;;;;10.43;1.80;;;;;;;0.05;86.21;99437.55;120219;1148;23985;-62
2021/01/13 06:37:53;;;;;;;12.20;2.40;;;;;;;0.05;85.75;99439.51;120472;1148;25970;-62
2021/01/13 06:40:24;;;;;;;12.03;1.83;;;;;;;0.03;85.73;99439.94;120509;1148;23022;-62
2021/01/13 06:42:54;;;;;;;10.17;1.50;;;;;;;0.04;86.16;99440.72;120203;1148;23004;-62
2021/01/13 06:45:33;;;;;;;14.40;2.62;;;;;;;0.04;85.79;99446.98;120088;1148;27492;-62
2021/01/13 06:48:04;;;;;;;12.67;1.57;;;;;;;0.04;85.84;99460.71;120223;1148;23004;-61
2021/01/13 06:50:37;;;;;;;8.70;1.73;;;;;;;0.03;86.71;99455.62;120259;1148;22920;-60
2021/01/13 06:53:10;;;;;;;14.23;2.40;;;;;;;0.04;86.58;99463.45;120129;1148;26062;-62
2021/01/13 06:55:42;;;;;;;13.37;2.83;;;;;;;0.04;86.55;99457.19;120194;1148;22931;-63
2021/01/13 06:58:16;;;;;;;13.97;2.43;;;;;;;0.04;86.14;99474.44;120115;1148;23040;-62
2021/01/13 07:00:48;;;;;;;11.40;2.43;;;;;;;0.04;86.35;99468.94;120118;1149;22945;-61
2021/01/13 07:03:29;;;;;;;17.75;3.80;;;;;;;0.05;86.07;99475.96;120079;1148;23044;-61
2021/01/13 07:06:02;;;;;;;11.10;1.97;;;;;;;0.08;86.14;99472.38;120034;1148;24713;-62
2021/01/13 07:08:33;;;;;;;15.23;3.10;;;;;;;0.10;85.65;99478.21;120028;1148;22937;-62
2021/01/13 07:11:05;;;;;;;15.23;2.60;;;;;;;0.13;85.58;99474.59;120106;1148;22937;-62
2021/01/13 07:13:37;;;;;;;9.77;2.37;;;;;;;0.17;86.01;99482.73;120027;1148;23111;-60
2021/01/13 07:16:09;;;;;;;12.20;2.10;;;;;;;0.17;85.96;99480.77;120051;1148;22926;-62
2021/01/13 07:18:39;;;;;;;14.47;3.13;;;;;;;0.19;85.76;99486.61;120032;1148;22947;-62
2021/01/13 07:21:10;;;;;;;9.73;2.12;;;;;;;0.21;85.34;99486.95;119989;1148;22949;-62
2021/01/13 07:23:46;;;;;;;13.70;3.20;;;;;;;0.22;86.09;99485.77;120162;1148;22934;-59
2021/01/13 07:26:16;;;;;;;14.30;2.70;;;;;;;0.22;85.91;99483.02;120059;1148;22926;-61
2021/01/13 07:28:47;;;;;;;17.30;3.30;;;;;;;0.24;86.13;99491.60;119805;1148;23204;-63
2021/01/13 07:31:28;;;;;;;17.80;3.87;;;;;;;0.25;85.99;99490.39;119994;1148;22944;-62
2021/01/13 07:34:08;;;;;;;17.43;3.20;;;;;;;0.28;85.89;99497.00;120040;1148;23028;-63
2021/01/13 07:36:40;;;;;;;11.00;2.17;;;;;;;0.29;85.63;99496.56;120072;1148;22923;-62
2021/01/13 07:39:11;;;;;;;11.43;2.97;;;;;;;0.30;85.70;99502.84;120098;1148;26057;-61
2021/01/13 07:42:16;;;;;;;15.05;3.22;;;;;;;0.31;86.31;99507.14;120043;1148;22951;-62
2021/01/13 07:44:53;;;;;;;15.97;3.67;;;;;;;0.29;85.99;99502.06;120049;1148;23019;-61
2021/01/13 07:47:29;;;;;;;14.23;3.33;;;;;;;0.27;86.49;99503.70;119974;1148;22946;-62
2021/01/13 07:50:13;;;;;;;16.80;3.83;;;;;;;0.25;86.24;99495.88;120026;1148;23063;-63
2021/01/13 07:52:46;;;;;;;18.90;4.27;;;;;;;0.24;86.20;99501.80;120116;1148;22940;-63
2021/01/13 07:55:18;;;;;;;12.80;4.05;;;;;;;0.23;86.91;99494.78;120109;1148;23409;-61
2021/01/13 07:57:53;;;;;;;17.55;4.30;;;;;;;0.23;86.66;99494.78;120153;1148;24599;-61
2021/01/13 08:00:31;;;;;;;24.83;4.90;;;;;;;0.23;86.16;99495.53;119976;1148;26178;-61
2021/01/13 08:03:39;;;;;;;13.87;2.90;;;;;;;0.23;86.24;99506.52;120119;1148;26619;-61
2021/01/13 08:06:28;;;;;;;21.70;4.47;;;;;;;0.23;86.25;99503.77;119980;1148;27842;-62
2021/01/13 08:09:13;;;;;;;22.13;4.80;;;;;;;0.25;86.22;99495.88;120016;1148;22961;-62
2021/01/13 08:12:28;;;;;;;19.80;4.30;;;;;;;0.26;86.72;99502.14;120038;1148;22961;-62
2021/01/13 08:15:45;;;;;;;20.77;3.80;;;;;;;0.27;87.03;99490.73;119996;1148;26348;-61
2021/01/13 08:18:49;;;;;;;20.65;4.80;;;;;;;0.29;86.90;99495.81;120064;1148;26364;-61
2021/01/13 08:21:26;;;;;;;18.63;4.13;;;;;;;0.30;86.68;99506.36;119957;1148;22924;-62
2021/01/13 08:24:03;;;;;;;23.73;5.03;;;;;;;0.30;86.34;99503.62;120144;1148;22926;-61
2021/01/13 08:26:35;;;;;;;18.50;4.63;;;;;;;0.30;86.17;99503.62;119980;1148;22947;-62
2021/01/13 08:29:07;;;;;;;16.77;3.50;;;;;;;0.31;86.82;99496.91;119989;1150;22974;-62
2021/01/13 08:31:42;;;;;;;17.80;4.85;;;;;;;0.31;86.28;99502.40;120033;1149;22994;-62
2021/01/13 08:34:14;;;;;;;20.60;6.00;;;;;;;0.34;86.28;99512.54;120088;1148;22923;-61
2021/01/13 08:36:54;;;;;;;23.00;3.40;;;;;;;0.35;86.89;99521.56;120069;1148;26446;-62
2021/01/13 08:39:35;;;;;;;18.12;4.17;;;;;;;0.36;87.12;99520.34;120245;1148;25982;-62
2021/01/13 08:42:29;;;;;;;18.80;3.53;;;;;;;0.36;86.97;99521.13;119932;1148;26652;-61
2021/01/13 08:45:00;;;;;;;15.63;3.50;;;;;;;0.39;86.92;99523.02;120117;1150;22933;-62
2021/01/13 08:47:33;;;;;;;17.55;2.90;;;;;;;0.41;86.84;99517.88;119891;1150;22932;-62
2021/01/13 08:50:13;;;;;;;;;;;;;;;0.44;86.72;99522.50;120124;1150;22962;-62
2021/01/13 08:52:50;;;;;;;16.47;3.33;;;;;;;0.46;86.94;99531.08;119993;1148;21618;-62
2021/01/13 08:55:23;;;;;;;15.43;3.47;;;;;;;0.49;86.14;99532.98;120062;1148;22957;-62
2021/01/13 08:58:03;;;;;;;15.57;2.93;;;;;;;0.51;86.94;99529.80;120204;1148;23147;-64
2021/01/13 09:00:34;;;;;;;;;;;;;;;0.52;86.41;99532.11;120237;1149;22952;-65
2021/01/13 09:03:06;;;;;;;;;;;;;;;0.50;86.17;99540.01;120303;1148;21559;-65
2021/01/13 09:05:38;;;;;;;22.17;5.30;;;;;;;0.47;86.98;99543.63;120120;1148;24228;-65
2021/01/13 09:08:12;;;;;;;15.23;4.00;;;;;;;0.41;86.88;99541.81;120122;1148;23100;-63
2021/01/13 09:10:47;;;;;;;15.05;3.35;;;;;;;0.36;86.98;99536.81;120006;1150;24615;-62
2021/01/13 09:13:43;;;;;;;13.60;2.93;;;;;;;0.32;87.21;99544.36;120103;1149;23359;-60
2021/01/13 09:16:35;;;;;;;16.83;4.03;;;;;;;0.27;87.33;99545.63;120101;1151;22967;-62
2021/01/13 09:19:10;;;;;;;16.70;4.57;;;;;;;0.25;87.10;99550.78;120010;1149;22974;-62
2021/01/13 09:21:42;;;;;;;15.73;4.10;;;;;;;0.23;87.37;99547.69;120053;1151;23132;-62
2021/01/13 09:24:22;;;;;;;17.23;5.43;;;;;;;0.23;86.75;99547.69;120042;1150;23027;-62
2021/01/13 09:26:54;;;;;;;16.42;4.12;;;;;;;0.27;86.83;99555.87;120140;1148;23060;-62
2021/01/13 09:29:28;;;;;;;24.73;5.03;;;;;;;0.29;86.83;99545.98;120229;1150;23068;-62
2021/01/13 09:32:16;;;;;;;10.57;2.47;;;;;;;0.32;86.51;99549.85;120110;1148;22922;-61
2021/01/13 09:34:47;;;;;;;15.87;3.80;;;;;;;0.35;86.45;99546.27;120129;1149;22939;-62
2021/01/13 09:37:19;;;;;;;21.20;4.90;;;;;;;0.37;86.99;99543.87;120097;1148;23460;-64
2021/01/13 09:40:00;;;;;;;17.40;4.13;;;;;;;0.39;86.26;99550.48;120133;1150;25977;-63
2021/01/13 09:42:40;;;;;;;17.87;4.03;;;;;;;0.43;86.77;99555.89;119968;1150;22913;-62
2021/01/13 09:45:13;;;;;;;14.50;3.07;;;;;;;0.45;86.54;99548.77;120078;1149;26449;-62
2021/01/13 09:47:44;;;;;;;15.45;3.80;;;;;;;0.48;86.81;99542.41;120038;1148;24569;-63
2021/01/13 09:50:21;;;;;;;15.10;3.90;;;;;;;0.51;86.21;99549.81;120072;1150;23083;-62
2021/01/13 09:52:54;;;;;;;14.13;3.47;;;;;;;0.55;86.77;99550.50;120141;1149;27440;-62
2021/01/13 09:55:25;;;;;;;19.47;4.17;;;;;;;0.58;86.82;99546.88;120126;1148;23055;-63
2021/01/13 09:58:14;;;;;;;13.73;3.97;;;;;;;0.62;86.56;99544.81;120092;1149;28509;-63
2021/01/13 10:00:46;;;;;;;16.37;3.50;;;;;;;0.64;86.04;99536.92;120030;1150;23103;-63
2021/01/13 10:03:18;;;;;;;16.70;3.93;;;;;;;0.67;85.88;99533.33;120142;1150;27254;-63
2021/01/13 10:05:50;;;;;;;18.83;3.10;;;;;;;0.70;85.87;99531.70;120167;1148;24611;-62
2021/01/13 10:08:29;;;;;;;17.87;4.20;;;;;;;0.74;86.46;99532.39;120171;1148;23028;-64
2021/01/13 10:11:01;;;;;;;18.00;3.80;;;;;;;0.77;86.41;99528.77;120036;1148;23084;-64
2021/01/13 10:13:34;;;;;;;15.30;3.70;;;;;;;0.78;86.01;99520.11;120124;1148;27736;-63
2021/01/13 10:16:07;;;;;;;18.30;3.60;;;;;;;0.80;85.95;99531.45;119991;1148;26012;-63
2021/01/13 10:18:49;;;;;;;14.90;2.47;;;;;;;0.81;85.92;99526.70;120108;1148;22947;-63
2021/01/13 10:21:22;;;;;;;13.27;2.50;;;;;;;0.81;85.39;99535.72;120311;1148;22952;-63
2021/01/13 10:23:55;;;;;;;21.43;4.13;;;;;;;0.81;86.05;99527.48;120227;1148;22930;-65
2021/01/13 10:26:34;;;;;;;14.03;3.17;;;;;;;0.83;85.69;99518.05;120200;1148;23251;-63
2021/01/13 10:29:10;;;;;;;16.87;2.90;;;;;;;0.81;85.40;99530.23;120255;1148;23940;-65
2021/01/13 10:31:41;;;;;;;22.93;5.67;;;;;;;0.83;85.77;99527.82;120202;1148;22922;-64
2021/01/13 10:34:14;;;;;;;13.17;3.30;;;;;;;0.88;85.89;99528.50;120082;1150;26635;-64
2021/01/13 10:36:46;;;;;;;15.37;2.40;;;;;;;0.91;86.02;99524.91;120453;1148;27726;-65
2021/01/13 10:39:21;;;;;;;18.65;3.30;;;;;;;0.98;86.20;99519.21;120279;1148;24695;-63
2021/01/13 10:41:54;;;;;;;19.20;3.10;;;;;;;1.05;85.54;99521.80;119987;1149;22961;-65
2021/01/13 10:44:27;;;;;;;11.20;2.00;;;;;;;1.08;85.76;99520.91;120792;1148;23413;-65
2021/01/13 10:47:00;;;;;;;13.95;2.40;;;;;;;1.10;85.86;99519.28;122227;1148;25676;-63
2021/01/13 10:49:34;;;;;;;12.30;2.15;;;;;;;1.09;85.44;99517.75;120036;1148;24598;-63
2021/01/13 10:52:13;;;;;;;17.87;2.33;;;;;;;1.07;85.29;99514.66;120239;1148;23364;-66
2021/01/13 10:54:52;;;;;;;16.07;2.40;;;;;;;1.07;84.98;99511.14;120857;1148;24342;-63
2021/01/13 10:57:31;;;;;;;15.37;2.27;;;;;;;1.08;85.57;99512.66;120610;1148;24351;-65
2021/01/13 11:00:13;;;;;;;14.15;2.75;;;;;;;1.09;85.34;99525.22;120471;1148;22986;-64
2021/01/13 11:02:53;;;;;;;14.18;2.90;;;;;;;1.10;85.05;99515.75;120467;1150;22961;-64
2021/01/13 11:05:24;;;;;;;21.30;2.85;;;;;;;1.10;85.41;99505.53;120365;1151;22977;-64
2021/01/13 11:07:57;;;;;;;15.80;2.45;;;;;;;1.12;85.44;99505.13;120439;1148;27858;-63
2021/01/13 11:10:28;;;;;;;14.67;2.60;;;;;;;1.13;85.01;99514.91;120277;1148;23083;-63
2021/01/13 11:13:03;;;;;;;12.57;2.10;;;;;;;1.16;84.65;99514.05;119997;1148;22924;-63
2021/01/13 11:15:34;;;;;;;14.63;2.53;;;;;;;1.20;85.18;99509.23;120141;1148;24598;-63
2021/01/13 11:18:13;;;;;;;12.50;1.90;;;;;;;1.24;84.04;99509.91;120025;1148;23078;-64
2021/01/13 11:20:47;;;;;;;11.73;1.30;;;;;;;1.27;83.86;99506.27;119970;1148;22920;-62
2021/01/13 11:23:24;;;;;;;14.55;1.70;;;;;;;1.27;83.95;99511.77;120202;1148;26510;-65
2021/01/13 11:26:00;;;;;;;16.03;1.83;;;;;;;1.32;84.33;99509.28;120082;1150;22934;-65
2021/01/13 11:28:32;;;;;;;12.60;1.40;;;;;;;1.38;83.71;99510.30;120017;1148;23054;-65
2021/01/13 11:31:04;;;;;;;18.23;2.60;;;;;;;1.45;84.04;99501.05;120375;1149;22979;-65
2021/01/13 11:33:35;;;;;;;16.17;1.20;;;;;;;1.50;83.48;99500.53;120028;1148;22938;-65
2021/01/13 11:36:07;;;;;;;15.70;1.67;;;;;;;1.56;83.27;99510.56;120161;1150;22857;-66
2021/01/13 11:39:00;;;;;;;14.40;3.03;;;;;;;1.62;83.34;99491.53;120129;1148;22923;-67
2021/01/13 11:42:11;;;;;;;13.77;1.70;;;;;;;1.69;82.73;99480.34;120335;1150;23080;-66
2021/01/13 11:45:05;;;;;;;12.47;1.30;;;;;;;1.76;82.30;99476.61;120550;1150;22934;-65
2021/01/13 11:47:46;;;;;;;16.97;1.60;;;;;;;1.81;82.77;99471.33;120081;1149;23043;-64
2021/01/13 11:50:21;;;;;;;16.47;2.07;;;;;;;1.87;82.63;99469.57;120270;1150;22941;-64
2021/01/13 11:52:54;;;;;;;14.50;1.67;;;;;;;1.92;82.08;99468.26;120089;1150;22919;-65
2021/01/13 11:55:29;;;;;;;11.23;1.40;;;;;;;1.95;82.02;99468.14;119975;1150;23387;-63
2021/01/13 11:57:59;;;;;;;11.50;1.70;;;;;;;1.98;81.91;99470.03;120105;1151;23007;-64
2021/01/13 12:00:29;;;;;;;;;;;;;;;2.02;81.61;99476.20;120356;1148;26481;-65
2021/01/13 12:03:01;;;;;;;14.45;1.42;;;;;;;2.03;81.78;99469.47;120214;1148;21579;-64
2021/01/13 12:05:34;;;;;;;12.30;1.50;;;;;;;2.06;81.86;99465.84;120168;1148;23058;-64
2021/01/13 12:08:06;;;;;;;13.10;1.60;;;;;;;2.09;82.05;99456.69;120165;1150;26079;-65
2021/01/13 12:10:39;;;;;;;11.40;1.63;;;;;;;2.10;81.89;99452.73;120132;1148;22934;-64
2021/01/13 12:13:15;;;;;;;15.83;1.67;;;;;;;2.12;81.95;99450.31;120067;1148;22923;-65